sensor_id;sensor_type;location;lat;lon;timestamp;pressure;altitude;pressure_sealevel;temperature
71640;BMP280;60912;48.968;10.124;2023-04-23T00:00:13;95967.25;;;15.05
71640;BMP280;60912;48.968;10.124;2023-04-23T00:02:43;95966.22;;;15.10
71640;BMP280;60912;48.968;10.124;2023-04-23T00:05:11;95960.66;;;15.10
71640;BMP280;60912;48.968;10.124;2023-04-23T00:07:37;95969.28;;;15.14
71640;BMP280;60912;48.968;10.124;2023-04-23T00:10:12;95963.50;;;15.01
71640;BMP280;60912;48.968;10.124;2023-04-23T00:12:38;95966.28;;;15.01
71640;BMP280;60912;48.968;10.124;2023-04-23T00:15:13;95957.78;;;14.99
71640;BMP280;60912;48.968;10.124;2023-04-23T00:17:39;95960.56;;;14.99
71640;BMP280;60912;48.968;10.124;2023-04-23T00:20:05;95957.50;;;15.04
71640;BMP280;60912;48.968;10.124;2023-04-23T00:22:30;95957.50;;;15.04
71640;BMP280;60912;48.968;10.124;2023-04-23T00:24:56;95945.66;;;15.04
71640;BMP280;60912;48.968;10.124;2023-04-23T00:27:21;95947.13;;;14.95
71640;BMP280;60912;48.968;10.124;2023-04-23T00:29:47;95961.00;;;14.95
71640;BMP280;60912;48.968;10.124;2023-04-23T00:32:12;95949.19;;;14.95
71640;BMP280;60912;48.968;10.124;2023-04-23T00:34:39;95953.72;;;15.00
71640;BMP280;60912;48.968;10.124;2023-04-23T00:37:12;95946.59;;;14.87
71640;BMP280;60912;48.968;10.124;2023-04-23T00:39:40;95946.53;;;14.97
71640;BMP280;60912;48.968;10.124;2023-04-23T00:42:09;95939.84;;;15.00
71640;BMP280;60912;48.968;10.124;2023-04-23T00:44:39;95954.72;;;15.04
71640;BMP280;60912;48.968;10.124;2023-04-23T00:47:08;95954.75;;;14.95
71640;BMP280;60912;48.968;10.124;2023-04-23T00:49:35;95960.28;;;14.95
71640;BMP280;60912;48.968;10.124;2023-04-23T00:52:09;95961.59;;;14.94
71640;BMP280;60912;48.968;10.124;2023-04-23T00:54:34;95958.41;;;14.88
71640;BMP280;60912;48.968;10.124;2023-04-23T00:57:00;95965.00;;;14.83
71640;BMP280;60912;48.968;10.124;2023-04-23T00:59:27;95959.63;;;14.75
71640;BMP280;60912;48.968;10.124;2023-04-23T01:02:00;95958.53;;;14.90
71640;BMP280;60912;48.968;10.124;2023-04-23T01:04:27;95952.44;;;14.82
71640;BMP280;60912;48.968;10.124;2023-04-23T01:07:54;95958.44;;;14.78
71640;BMP280;60912;48.968;10.124;2023-04-23T01:10:19;95959.16;;;14.79
71640;BMP280;60912;48.968;10.124;2023-04-23T01:12:55;95957.28;;;14.71
71640;BMP280;60912;48.968;10.124;2023-04-23T01:15:30;95957.81;;;14.80
71640;BMP280;60912;48.968;10.124;2023-04-23T01:18:04;95959.28;;;14.81
71640;BMP280;60912;48.968;10.124;2023-04-23T01:20:35;95965.56;;;14.91
71640;BMP280;60912;48.968;10.124;2023-04-23T01:23:11;95963.09;;;14.85
71640;BMP280;60912;48.968;10.124;2023-04-23T01:25:39;95964.44;;;14.74
71640;BMP280;60912;48.968;10.124;2023-04-23T01:28:14;95961.81;;;14.77
71640;BMP280;60912;48.968;10.124;2023-04-23T01:30:43;95972.00;;;14.84
71640;BMP280;60912;48.968;10.124;2023-04-23T01:33:22;95974.47;;;14.80
71640;BMP280;60912;48.968;10.124;2023-04-23T01:35:59;95966.16;;;14.80
71640;BMP280;60912;48.968;10.124;2023-04-23T01:38:27;95976.13;;;14.63
71640;BMP280;60912;48.968;10.124;2023-04-23T01:40:54;95989.28;;;14.53
71640;BMP280;60912;48.968;10.124;2023-04-23T01:43:21;95978.22;;;14.53
71640;BMP280;60912;48.968;10.124;2023-04-23T01:45:49;95981.25;;;14.57
71640;BMP280;60912;48.968;10.124;2023-04-23T01:48:18;95990.03;;;14.54
71640;BMP280;60912;48.968;10.124;2023-04-23T01:50:43;95978.78;;;14.42
71640;BMP280;60912;48.968;10.124;2023-04-23T01:53:09;95989.28;;;14.44
71640;BMP280;60912;48.968;10.124;2023-04-23T01:55:37;95993.50;;;14.54
71640;BMP280;60912;48.968;10.124;2023-04-23T01:58:03;95992.03;;;14.44
71640;BMP280;60912;48.968;10.124;2023-04-23T02:00:29;95999.50;;;14.51
71640;BMP280;60912;48.968;10.124;2023-04-23T02:02:55;96001.81;;;14.54
71640;BMP280;60912;48.968;10.124;2023-04-23T02:05:26;95990.91;;;14.27
71640;BMP280;60912;48.968;10.124;2023-04-23T02:07:55;96004.91;;;14.30
71640;BMP280;60912;48.968;10.124;2023-04-23T02:10:21;96007.97;;;14.24
71640;BMP280;60912;48.968;10.124;2023-04-23T02:12:46;96009.41;;;14.25
71640;BMP280;60912;48.968;10.124;2023-04-23T02:15:13;96013.66;;;14.26
71640;BMP280;60912;48.968;10.124;2023-04-23T02:17:39;96018.91;;;14.22
71640;BMP280;60912;48.968;10.124;2023-04-23T02:20:06;96015.53;;;14.14
71640;BMP280;60912;48.968;10.124;2023-04-23T02:22:32;96013.47;;;13.95
71640;BMP280;60912;48.968;10.124;2023-04-23T02:31:06;96017.28;;;14.00
71640;BMP280;60912;48.968;10.124;2023-04-23T02:33:34;96017.69;;;13.96
71640;BMP280;60912;48.968;10.124;2023-04-23T02:36:02;96014.94;;;13.96
71640;BMP280;60912;48.968;10.124;2023-04-23T02:38:36;96021.47;;;13.91
71640;BMP280;60912;48.968;10.124;2023-04-23T02:41:08;96025.72;;;14.02
71640;BMP280;60912;48.968;10.124;2023-04-23T02:43:34;96019.31;;;14.09
71640;BMP280;60912;48.968;10.124;2023-04-23T02:46:07;96026.03;;;14.06
71640;BMP280;60912;48.968;10.124;2023-04-23T02:48:42;96023.97;;;13.97
71640;BMP280;60912;48.968;10.124;2023-04-23T02:51:24;96022.09;;;13.99
71640;BMP280;60912;48.968;10.124;2023-04-23T02:53:56;96019.91;;;13.98
71640;BMP280;60912;48.968;10.124;2023-04-23T02:56:21;96027.16;;;13.84
71640;BMP280;60912;48.968;10.124;2023-04-23T02:58:50;96030.63;;;13.74
71640;BMP280;60912;48.968;10.124;2023-04-23T03:01:18;96023.81;;;13.75
71640;BMP280;60912;48.968;10.124;2023-04-23T03:03:44;96022.59;;;13.69
71640;BMP280;60912;48.968;10.124;2023-04-23T03:06:10;96022.47;;;13.76
71640;BMP280;60912;48.968;10.124;2023-04-23T03:08:38;96029.47;;;13.77
71640;BMP280;60912;48.968;10.124;2023-04-23T03:11:06;96033.41;;;13.84
71640;BMP280;60912;48.968;10.124;2023-04-23T03:13:35;96030.38;;;13.90
71640;BMP280;60912;48.968;10.124;2023-04-23T03:16:05;96021.19;;;13.87
71640;BMP280;60912;48.968;10.124;2023-04-23T03:18:43;96026.88;;;13.89
71640;BMP280;60912;48.968;10.124;2023-04-23T03:21:09;96035.91;;;13.90
71640;BMP280;60912;48.968;10.124;2023-04-23T03:23:45;96026.66;;;13.68
71640;BMP280;60912;48.968;10.124;2023-04-23T03:26:11;96031.72;;;13.52
71640;BMP280;60912;48.968;10.124;2023-04-23T03:28:36;96029.09;;;13.54
71640;BMP280;60912;48.968;10.124;2023-04-23T03:31:04;96025.91;;;13.58
71640;BMP280;60912;48.968;10.124;2023-04-23T03:33:30;96023.03;;;13.65
71640;BMP280;60912;48.968;10.124;2023-04-23T03:35:55;96028.56;;;13.65
71640;BMP280;60912;48.968;10.124;2023-04-23T03:38:20;96026.66;;;13.68
71640;BMP280;60912;48.968;10.124;2023-04-23T03:40:46;96032.09;;;13.75
71640;BMP280;60912;48.968;10.124;2023-04-23T03:43:25;96030.31;;;13.70
71640;BMP280;60912;48.968;10.124;2023-04-23T03:45:55;96031.50;;;13.77
71640;BMP280;60912;48.968;10.124;2023-04-23T03:48:21;96033.13;;;13.80
71640;BMP280;60912;48.968;10.124;2023-04-23T03:50:46;96036.44;;;13.78
71640;BMP280;60912;48.968;10.124;2023-04-23T03:53:20;96039.66;;;13.65
71640;BMP280;60912;48.968;10.124;2023-04-23T03:55:45;96046.47;;;13.64
71640;BMP280;60912;48.968;10.124;2023-04-23T03:58:11;96038.31;;;13.66
71640;BMP280;60912;48.968;10.124;2023-04-23T04:00:36;96047.53;;;13.69
71640;BMP280;60912;48.968;10.124;2023-04-23T04:03:02;96054.94;;;13.66
71640;BMP280;60912;48.968;10.124;2023-04-23T04:05:34;96055.03;;;13.49
71640;BMP280;60912;48.968;10.124;2023-04-23T04:08:05;96051.78;;;13.43
71640;BMP280;60912;48.968;10.124;2023-04-23T04:10:30;96043.78;;;13.47
71640;BMP280;60912;48.968;10.124;2023-04-23T04:12:55;96041.03;;;13.47
71640;BMP280;60912;48.968;10.124;2023-04-23T04:15:21;96058.38;;;13.48
71640;BMP280;60912;48.968;10.124;2023-04-23T04:17:46;96051.78;;;13.43
71640;BMP280;60912;48.968;10.124;2023-04-23T04:20:12;96050.19;;;13.40
71640;BMP280;60912;48.968;10.124;2023-04-23T04:22:37;96043.84;;;13.30
71640;BMP280;60912;48.968;10.124;2023-04-23T04:25:03;96042.31;;;13.37
71640;BMP280;60912;48.968;10.124;2023-04-23T04:27:29;96045.31;;;13.31
71640;BMP280;60912;48.968;10.124;2023-04-23T04:29:58;96048.22;;;13.33
71640;BMP280;60912;48.968;10.124;2023-04-23T04:32:23;96052.78;;;13.38
71640;BMP280;60912;48.968;10.124;2023-04-23T04:34:49;96055.41;;;13.36
71640;BMP280;60912;48.968;10.124;2023-04-23T04:37:14;96049.53;;;13.32
71640;BMP280;60912;48.968;10.124;2023-04-23T04:39:41;96041.94;;;13.23
71640;BMP280;60912;48.968;10.124;2023-04-23T04:42:07;96047.72;;;13.17
71640;BMP280;60912;48.968;10.124;2023-04-23T04:44:33;96047.50;;;13.32
71640;BMP280;60912;48.968;10.124;2023-04-23T04:47:01;96039.72;;;13.48
71640;BMP280;60912;48.968;10.124;2023-04-23T04:49:26;96047.91;;;13.56
71640;BMP280;60912;48.968;10.124;2023-04-23T04:51:52;96054.19;;;13.56
71640;BMP280;60912;48.968;10.124;2023-04-23T04:54:18;96062.03;;;13.50
71640;BMP280;60912;48.968;10.124;2023-04-23T04:56:43;96062.13;;;13.43
71640;BMP280;60912;48.968;10.124;2023-04-23T04:59:09;96068.38;;;13.43
71640;BMP280;60912;48.968;10.124;2023-04-23T05:01:37;96067.78;;;13.35
71640;BMP280;60912;48.968;10.124;2023-04-23T05:04:02;96065.19;;;13.37
71640;BMP280;60912;48.968;10.124;2023-04-23T05:06:28;96075.53;;;13.46
71640;BMP280;60912;48.968;10.124;2023-04-23T05:08:53;96074.53;;;13.51
71640;BMP280;60912;48.968;10.124;2023-04-23T05:11:19;96072.97;;;13.58
71640;BMP280;60912;48.968;10.124;2023-04-23T05:13:46;96079.13;;;13.66
71640;BMP280;60912;48.968;10.124;2023-04-23T05:16:12;96079.03;;;13.73
71640;BMP280;60912;48.968;10.124;2023-04-23T05:18:38;96086.31;;;13.78
71640;BMP280;60912;48.968;10.124;2023-04-23T05:21:04;96074.94;;;13.74
71640;BMP280;60912;48.968;10.124;2023-04-23T05:23:30;96071.16;;;13.79
71640;BMP280;60912;48.968;10.124;2023-04-23T05:25:55;96069.25;;;13.72
71640;BMP280;60912;48.968;10.124;2023-04-23T05:28:22;96069.69;;;13.69
71640;BMP280;60912;48.968;10.124;2023-04-23T05:30:48;96062.72;;;13.77
71640;BMP280;60912;48.968;10.124;2023-04-23T05:33:14;96067.59;;;13.69
71640;BMP280;60912;48.968;10.124;2023-04-23T05:35:40;96076.09;;;13.71
71640;BMP280;60912;48.968;10.124;2023-04-23T05:38:05;96068.69;;;13.84
71640;BMP280;60912;48.968;10.124;2023-04-23T05:40:31;96074.25;;;13.93
71640;BMP280;60912;48.968;10.124;2023-04-23T05:42:59;96072.97;;;14.04
71640;BMP280;60912;48.968;10.124;2023-04-23T05:45:25;96070.34;;;14.06
71640;BMP280;60912;48.968;10.124;2023-04-23T05:47:50;96060.44;;;14.03
71640;BMP280;60912;48.968;10.124;2023-04-23T05:50:16;96068.00;;;13.93
71640;BMP280;60912;48.968;10.124;2023-04-23T05:52:42;96074.94;;;13.74
71640;BMP280;60912;48.968;10.124;2023-04-23T05:55:08;96075.63;;;13.65
71640;BMP280;60912;48.968;10.124;2023-04-23T05:57:36;96070.53;;;13.71
71640;BMP280;60912;48.968;10.124;2023-04-23T06:00:05;96073.78;;;13.77
71640;BMP280;60912;48.968;10.124;2023-04-23T06:02:34;96074.22;;;13.84
71640;BMP280;60912;48.968;10.124;2023-04-23T06:04:59;96071.19;;;13.89
71640;BMP280;60912;48.968;10.124;2023-04-23T06:07:25;96076.03;;;13.98
71640;BMP280;60912;48.968;10.124;2023-04-23T06:09:50;96070.50;;;14.08
71640;BMP280;60912;48.968;10.124;2023-04-23T06:12:16;96069.50;;;14.22
71640;BMP280;60912;48.968;10.124;2023-04-23T06:14:42;96079.75;;;14.39
71640;BMP280;60912;48.968;10.124;2023-04-23T06:17:07;96083.25;;;14.49
71640;BMP280;60912;48.968;10.124;2023-04-23T06:19:35;96082.53;;;14.58
71640;BMP280;60912;48.968;10.124;2023-04-23T06:22:01;96085.28;;;14.68
71640;BMP280;60912;48.968;10.124;2023-04-23T06:24:26;96087.19;;;14.56
71640;BMP280;60912;48.968;10.124;2023-04-23T06:26:51;96082.25;;;14.54
71640;BMP280;60912;48.968;10.124;2023-04-23T06:29:17;96082.25;;;14.64
71640;BMP280;60912;48.968;10.124;2023-04-23T06:31:42;96085.56;;;14.43
71640;BMP280;60912;48.968;10.124;2023-04-23T06:34:07;96093.16;;;14.23
71640;BMP280;60912;48.968;10.124;2023-04-23T06:36:33;96087.31;;;14.29
71640;BMP280;60912;48.968;10.124;2023-04-23T06:38:59;96078.97;;;14.19
71640;BMP280;60912;48.968;10.124;2023-04-23T06:41:24;96074.91;;;14.20
71640;BMP280;60912;48.968;10.124;2023-04-23T06:43:50;96079.03;;;14.39
71640;BMP280;60912;48.968;10.124;2023-04-23T06:46:15;96067.19;;;14.38
71640;BMP280;60912;48.968;10.124;2023-04-23T06:48:41;96063.69;;;14.28
71640;BMP280;60912;48.968;10.124;2023-04-23T06:51:06;96059.00;;;14.21
71640;BMP280;60912;48.968;10.124;2023-04-23T06:53:32;96056.69;;;14.27
71640;BMP280;60912;48.968;10.124;2023-04-23T06:55:57;96061.78;;;14.31
71640;BMP280;60912;48.968;10.124;2023-04-23T06:58:22;96063.84;;;14.49
71640;BMP280;60912;48.968;10.124;2023-04-23T07:00:56;96067.50;;;14.61
71640;BMP280;60912;48.968;10.124;2023-04-23T07:03:27;96056.53;;;14.73
71640;BMP280;60912;48.968;10.124;2023-04-23T07:05:52;96052.59;;;14.86
71640;BMP280;60912;48.968;10.124;2023-04-23T07:08:18;96058.56;;;14.92
71640;BMP280;60912;48.968;10.124;2023-04-23T07:10:45;96050.81;;;14.90
71640;BMP280;60912;48.968;10.124;2023-04-23T07:13:10;96056.25;;;14.88
71640;BMP280;60912;48.968;10.124;2023-04-23T07:15:39;96055.19;;;15.03
71640;BMP280;60912;48.968;10.124;2023-04-23T07:18:05;96054.63;;;15.35
71640;BMP280;60912;48.968;10.124;2023-04-23T07:20:31;96055.78;;;15.51
71640;BMP280;60912;48.968;10.124;2023-04-23T07:22:57;96064.63;;;15.90
71640;BMP280;60912;48.968;10.124;2023-04-23T07:25:23;96052.81;;;16.11
71640;BMP280;60912;48.968;10.124;2023-04-23T07:27:49;96051.75;;;16.16
71640;BMP280;60912;48.968;10.124;2023-04-23T07:30:15;96059.13;;;16.23
71640;BMP280;60912;48.968;10.124;2023-04-23T07:32:41;96061.53;;;16.38
71640;BMP280;60912;48.968;10.124;2023-04-23T07:35:06;96056.47;;;16.46
71640;BMP280;60912;48.968;10.124;2023-04-23T07:37:33;96054.00;;;16.29
71640;BMP280;60912;48.968;10.124;2023-04-23T07:39:59;96054.22;;;16.33
71640;BMP280;60912;48.968;10.124;2023-04-23T07:42:26;96046.50;;;16.32
71640;BMP280;60912;48.968;10.124;2023-04-23T07:44:52;96034.91;;;16.35
71640;BMP280;60912;48.968;10.124;2023-04-23T07:47:17;96044.09;;;16.38
71640;BMP280;60912;48.968;10.124;2023-04-23T07:49:42;96051.75;;;16.49
71640;BMP280;60912;48.968;10.124;2023-04-23T07:52:08;96048.00;;;16.44
71640;BMP280;60912;48.968;10.124;2023-04-23T07:54:36;96041.16;;;16.24
71640;BMP280;60912;48.968;10.124;2023-04-23T07:57:02;96049.34;;;16.01
71640;BMP280;60912;48.968;10.124;2023-04-23T07:59:30;96051.34;;;16.10
71640;BMP280;60912;48.968;10.124;2023-04-23T08:01:55;96044.44;;;16.53
71640;BMP280;60912;48.968;10.124;2023-04-23T08:04:21;96047.88;;;16.75
71640;BMP280;60912;48.968;10.124;2023-04-23T08:06:46;96041.97;;;16.81
71640;BMP280;60912;48.968;10.124;2023-04-23T08:09:11;96050.34;;;16.59
71640;BMP280;60912;48.968;10.124;2023-04-23T08:11:37;96042.09;;;16.50
71640;BMP280;60912;48.968;10.124;2023-04-23T08:14:02;96041.78;;;16.55
71640;BMP280;60912;48.968;10.124;2023-04-23T08:16:28;96036.94;;;17.00
71640;BMP280;60912;48.968;10.124;2023-04-23T08:18:53;96033.69;;;17.50
71640;BMP280;60912;48.968;10.124;2023-04-23T08:21:18;96031.97;;;17.45
71640;BMP280;60912;48.968;10.124;2023-04-23T08:23:44;96027.38;;;17.03
71640;BMP280;60912;48.968;10.124;2023-04-23T08:26:09;96022.84;;;16.75
71640;BMP280;60912;48.968;10.124;2023-04-23T08:28:34;96035.03;;;16.70
71640;BMP280;60912;48.968;10.124;2023-04-23T08:31:00;96021.50;;;16.76
71640;BMP280;60912;48.968;10.124;2023-04-23T08:33:26;96027.38;;;17.15
71640;BMP280;60912;48.968;10.124;2023-04-23T08:35:51;96033.69;;;17.27
71640;BMP280;60912;48.968;10.124;2023-04-23T08:38:17;96026.56;;;17.24
71640;BMP280;60912;48.968;10.124;2023-04-23T08:40:44;96018.31;;;17.03
71640;BMP280;60912;48.968;10.124;2023-04-23T08:43:18;96021.66;;;16.90
71640;BMP280;60912;48.968;10.124;2023-04-23T08:45:46;96017.31;;;17.10
71640;BMP280;60912;48.968;10.124;2023-04-23T08:48:12;96021.72;;;17.13
71640;BMP280;60912;48.968;10.124;2023-04-23T08:50:41;96025.09;;;17.46
71640;BMP280;60912;48.968;10.124;2023-04-23T08:53:08;96019.75;;;17.50
71640;BMP280;60912;48.968;10.124;2023-04-23T08:55:34;96022.00;;;17.89
71640;BMP280;60912;48.968;10.124;2023-04-23T08:58:00;96019.63;;;18.20
71640;BMP280;60912;48.968;10.124;2023-04-23T09:00:26;96011.31;;;18.59
71640;BMP280;60912;48.968;10.124;2023-04-23T09:02:52;96022.72;;;18.63
71640;BMP280;60912;48.968;10.124;2023-04-23T09:05:17;96015.22;;;18.54
71640;BMP280;60912;48.968;10.124;2023-04-23T09:07:43;96009.16;;;18.57
71640;BMP280;60912;48.968;10.124;2023-04-23T09:10:10;96010.66;;;18.47
71640;BMP280;60912;48.968;10.124;2023-04-23T09:12:38;96010.03;;;18.48
71640;BMP280;60912;48.968;10.124;2023-04-23T09:15:05;96011.00;;;17.91
71640;BMP280;60912;48.968;10.124;2023-04-23T09:17:40;96014.06;;;17.60
71640;BMP280;60912;48.968;10.124;2023-04-23T09:20:06;96008.16;;;17.19
71640;BMP280;60912;48.968;10.124;2023-04-23T09:25:14;96002.69;;;17.56
71640;BMP280;60912;48.968;10.124;2023-04-23T09:27:40;96002.03;;;17.92
71640;BMP280;60912;48.968;10.124;2023-04-23T09:30:08;95999.78;;;18.02
71640;BMP280;60912;48.968;10.124;2023-04-23T09:32:36;95982.09;;;18.35
71640;BMP280;60912;48.968;10.124;2023-04-23T09:35:03;95977.06;;;18.70
71640;BMP280;60912;48.968;10.124;2023-04-23T09:37:29;95979.91;;;18.33
71640;BMP280;60912;48.968;10.124;2023-04-23T09:39:58;95977.22;;;18.10
71640;BMP280;60912;48.968;10.124;2023-04-23T09:42:26;95984.13;;;18.09
71640;BMP280;60912;48.968;10.124;2023-04-23T09:45:06;95968.00;;;18.33
71640;BMP280;60912;48.968;10.124;2023-04-23T09:47:38;95964.78;;;18.50
71640;BMP280;60912;48.968;10.124;2023-04-23T09:50:04;95963.91;;;18.86
71640;BMP280;60912;48.968;10.124;2023-04-23T09:52:31;95967.66;;;18.91
71640;BMP280;60912;48.968;10.124;2023-04-23T09:54:57;95962.22;;;19.20
71640;BMP280;60912;48.968;10.124;2023-04-23T09:57:25;95963.03;;;19.93
71640;BMP280;60912;48.968;10.124;2023-04-23T09:59:51;95966.81;;;20.42
71640;BMP280;60912;48.968;10.124;2023-04-23T10:02:16;95960.06;;;19.89
71640;BMP280;60912;48.968;10.124;2023-04-23T10:04:43;95952.91;;;19.86
71640;BMP280;60912;48.968;10.124;2023-04-23T10:07:09;95952.91;;;19.43
71640;BMP280;60912;48.968;10.124;2023-04-23T10:09:39;95948.81;;;19.59
71640;BMP280;60912;48.968;10.124;2023-04-23T10:12:06;95946.38;;;19.52
71640;BMP280;60912;48.968;10.124;2023-04-23T10:14:37;95942.13;;;19.51
71640;BMP280;60912;48.968;10.124;2023-04-23T10:17:03;95944.78;;;19.62
71640;BMP280;60912;48.968;10.124;2023-04-23T10:19:31;95942.03;;;19.35
71640;BMP280;60912;48.968;10.124;2023-04-23T10:21:58;95938.91;;;19.56
71640;BMP280;60912;48.968;10.124;2023-04-23T10:24:28;95944.03;;;20.05
71640;BMP280;60912;48.968;10.124;2023-04-23T10:26:59;95940.63;;;20.83
71640;BMP280;60912;48.968;10.124;2023-04-23T10:29:29;95932.91;;;21.14
71640;BMP280;60912;48.968;10.124;2023-04-23T10:31:57;95936.38;;;20.50
71640;BMP280;60912;48.968;10.124;2023-04-23T10:34:24;95939.09;;;20.79
71640;BMP280;60912;48.968;10.124;2023-04-23T10:36:50;95933.47;;;20.64
71640;BMP280;60912;48.968;10.124;2023-04-23T10:39:19;95928.31;;;21.05
71640;BMP280;60912;48.968;10.124;2023-04-23T10:41:45;95931.38;;;21.11
71640;BMP280;60912;48.968;10.124;2023-04-23T10:44:12;95927.06;;;20.77
71640;BMP280;60912;48.968;10.124;2023-04-23T10:46:37;95918.75;;;20.95
71640;BMP280;60912;48.968;10.124;2023-04-23T10:49:13;95917.59;;;20.68
71640;BMP280;60912;48.968;10.124;2023-04-23T10:51:41;95921.66;;;20.65
71640;BMP280;60912;48.968;10.124;2023-04-23T10:54:10;95916.13;;;20.99
71640;BMP280;60912;48.968;10.124;2023-04-23T10:56:39;95909.91;;;21.00
71640;BMP280;60912;48.968;10.124;2023-04-23T10:59:06;95906.00;;;21.07
71640;BMP280;60912;48.968;10.124;2023-04-23T11:01:32;95893.72;;;20.99
71640;BMP280;60912;48.968;10.124;2023-04-23T11:03:58;95896.69;;;21.03
71640;BMP280;60912;48.968;10.124;2023-04-23T11:06:50;95897.25;;;21.32
71640;BMP280;60912;48.968;10.124;2023-04-23T11:09:47;95889.84;;;21.57
71640;BMP280;60912;48.968;10.124;2023-04-23T11:12:33;95875.81;;;21.92
71640;BMP280;60912;48.968;10.124;2023-04-23T11:15:09;95883.34;;;21.87
71640;BMP280;60912;48.968;10.124;2023-04-23T11:22:44;95863.97;;;22.13
71640;BMP280;60912;48.968;10.124;2023-04-23T11:27:41;95859.59;;;22.08
71640;BMP280;60912;48.968;10.124;2023-04-23T11:30:11;95853.81;;;22.61
71640;BMP280;60912;48.968;10.124;2023-04-23T11:32:39;95849.66;;;22.25
71640;BMP280;60912;48.968;10.124;2023-04-23T11:35:06;95861.94;;;21.96
71640;BMP280;60912;48.968;10.124;2023-04-23T11:37:32;95849.84;;;21.91
71640;BMP280;60912;48.968;10.124;2023-04-23T11:40:04;95847.66;;;21.19
71640;BMP280;60912;48.968;10.124;2023-04-23T11:42:40;95859.44;;;21.16
71640;BMP280;60912;48.968;10.124;2023-04-23T11:45:05;95848.66;;;21.10
71640;BMP280;60912;48.968;10.124;2023-04-23T11:47:32;95836.28;;;21.15
71640;BMP280;60912;48.968;10.124;2023-04-23T11:50:00;95836.47;;;21.37
71640;BMP280;60912;48.968;10.124;2023-04-23T11:52:25;95837.50;;;21.63
71640;BMP280;60912;48.968;10.124;2023-04-23T11:54:50;95817.84;;;21.10
71640;BMP280;60912;48.968;10.124;2023-04-23T11:57:16;95828.41;;;20.94
71640;BMP280;60912;48.968;10.124;2023-04-23T11:59:41;95821.38;;;21.11
71640;BMP280;60912;48.968;10.124;2023-04-23T12:02:07;95821.31;;;21.62
71640;BMP280;60912;48.968;10.124;2023-04-23T12:04:32;95821.50;;;21.48
71640;BMP280;60912;48.968;10.124;2023-04-23T12:06:58;95823.41;;;21.79
71640;BMP280;60912;48.968;10.124;2023-04-23T12:09:27;95811.75;;;22.04
71640;BMP280;60912;48.968;10.124;2023-04-23T12:11:55;95816.91;;;21.74
71640;BMP280;60912;48.968;10.124;2023-04-23T12:14:25;95808.19;;;21.66
71640;BMP280;60912;48.968;10.124;2023-04-23T12:16:53;95813.00;;;22.01
71640;BMP280;60912;48.968;10.124;2023-04-23T12:19:21;95815.56;;;21.05
71640;BMP280;60912;48.968;10.124;2023-04-23T12:22:02;95815.06;;;20.77
71640;BMP280;60912;48.968;10.124;2023-04-23T12:24:29;95811.50;;;20.59
71640;BMP280;60912;48.968;10.124;2023-04-23T12:26:57;95801.13;;;20.95
71640;BMP280;60912;48.968;10.124;2023-04-23T12:29:25;95810.69;;;20.56
71640;BMP280;60912;48.968;10.124;2023-04-23T12:31:52;95811.63;;;20.78
71640;BMP280;60912;48.968;10.124;2023-04-23T12:34:19;95812.41;;;20.63
71640;BMP280;60912;48.968;10.124;2023-04-23T12:36:52;95799.31;;;20.86
71640;BMP280;60912;48.968;10.124;2023-04-23T12:42:06;95796.63;;;19.92
71640;BMP280;60912;48.968;10.124;2023-04-23T12:44:36;95800.94;;;20.26
71640;BMP280;60912;48.968;10.124;2023-04-23T12:47:09;95795.59;;;20.48
71640;BMP280;60912;48.968;10.124;2023-04-23T12:49:41;95789.03;;;20.41
71640;BMP280;60912;48.968;10.124;2023-04-23T12:52:07;95788.50;;;20.45
71640;BMP280;60912;48.968;10.124;2023-04-23T12:54:35;95792.03;;;20.78
71640;BMP280;60912;48.968;10.124;2023-04-23T12:57:02;95784.25;;;20.44
71640;BMP280;60912;48.968;10.124;2023-04-23T12:59:29;95777.41;;;20.00
71640;BMP280;60912;48.968;10.124;2023-04-23T13:01:55;95759.72;;;20.42
71640;BMP280;60912;48.968;10.124;2023-04-23T13:04:20;95748.09;;;20.16
71640;BMP280;60912;48.968;10.124;2023-04-23T13:06:46;95743.59;;;20.58
71640;BMP280;60912;48.968;10.124;2023-04-23T13:09:11;95745.94;;;20.48
71640;BMP280;60912;48.968;10.124;2023-04-23T13:11:37;95738.34;;;20.66
71640;BMP280;60912;48.968;10.124;2023-04-23T13:14:04;95730.78;;;21.22
71640;BMP280;60912;48.968;10.124;2023-04-23T13:16:30;95720.53;;;21.11
71640;BMP280;60912;48.968;10.124;2023-04-23T13:18:55;95719.59;;;21.04
71640;BMP280;60912;48.968;10.124;2023-04-23T13:21:21;95721.25;;;21.29
71640;BMP280;60912;48.968;10.124;2023-04-23T13:23:46;95715.50;;;21.62
71640;BMP280;60912;48.968;10.124;2023-04-23T13:26:12;95707.63;;;21.39
71640;BMP280;60912;48.968;10.124;2023-04-23T13:28:37;95707.91;;;20.92
71640;BMP280;60912;48.968;10.124;2023-04-23T13:31:03;95696.66;;;21.10
71640;BMP280;60912;48.968;10.124;2023-04-23T13:33:29;95691.69;;;21.26
71640;BMP280;60912;48.968;10.124;2023-04-23T13:35:56;95689.94;;;21.34
71640;BMP280;60912;48.968;10.124;2023-04-23T13:38:23;95682.38;;;21.57
71640;BMP280;60912;48.968;10.124;2023-04-23T13:40:49;95672.31;;;21.69
71640;BMP280;60912;48.968;10.124;2023-04-23T13:43:14;95656.78;;;22.06
71640;BMP280;60912;48.968;10.124;2023-04-23T13:45:39;95651.13;;;22.25
71640;BMP280;60912;48.968;10.124;2023-04-23T13:48:05;95661.31;;;21.56
71640;BMP280;60912;48.968;10.124;2023-04-23T13:50:32;95656.31;;;21.54
71640;BMP280;60912;48.968;10.124;2023-04-23T13:52:57;95659.22;;;21.76
71640;BMP280;60912;48.968;10.124;2023-04-23T13:55:23;95647.19;;;21.93
71640;BMP280;60912;48.968;10.124;2023-04-23T13:57:48;95647.41;;;22.19
71640;BMP280;60912;48.968;10.124;2023-04-23T14:00:14;95645.63;;;22.08
71640;BMP280;60912;48.968;10.124;2023-04-23T14:02:39;95648.59;;;21.92
71640;BMP280;60912;48.968;10.124;2023-04-23T14:05:05;95642.69;;;22.04
71640;BMP280;60912;48.968;10.124;2023-04-23T14:07:33;95628.63;;;22.45
71640;BMP280;60912;48.968;10.124;2023-04-23T14:09:58;95628.19;;;22.31
71640;BMP280;60912;48.968;10.124;2023-04-23T14:12:23;95619.75;;;22.31
71640;BMP280;60912;48.968;10.124;2023-04-23T14:17:47;95603.34;;;22.23
71640;BMP280;60912;48.968;10.124;2023-04-23T14:20:19;95601.47;;;22.30